createdAt,value
2022-11-04T00:00:31.563Z,13.53
2022-11-04T00:03:00.746Z,13.50
2022-11-04T00:05:29.360Z,13.03
2022-11-04T00:08:15.384Z,13.30
2022-11-04T00:11:02.247Z,13.80
2022-11-04T00:13:32.599Z,13.87
2022-11-04T00:16:20.245Z,14.57
2022-11-04T00:18:48.878Z,13.80
2022-11-04T00:21:34.671Z,15.83
2022-11-04T00:24:21.078Z,13.50
2022-11-04T00:27:07.285Z,13.70
2022-11-04T00:29:37.261Z,13.40
2022-11-04T00:32:23.281Z,14.20
2022-11-04T00:34:51.888Z,12.80
2022-11-04T00:37:20.711Z,13.70
2022-11-04T00:39:49.257Z,14.20
2022-11-04T00:42:17.859Z,13.50
2022-11-04T00:44:47.827Z,13.27
2022-11-04T00:47:16.403Z,14.00
2022-11-04T00:49:44.941Z,13.47
2022-11-04T00:52:13.582Z,13.97
2022-11-04T00:54:42.497Z,13.27
2022-11-04T00:57:11.174Z,13.83
2022-11-04T00:59:39.925Z,13.60
2022-11-04T01:02:11.538Z,13.97
2022-11-04T01:04:40.448Z,13.80
2022-11-04T01:07:09.231Z,13.73
2022-11-04T01:09:37.940Z,13.97
2022-11-04T01:12:06.720Z,14.50
2022-11-04T01:14:35.408Z,13.03
2022-11-04T01:17:03.974Z,13.53
2022-11-04T01:19:33.965Z,13.33
2022-11-04T01:22:02.617Z,13.57
2022-11-04T01:24:31.261Z,13.37
2022-11-04T01:26:59.894Z,13.30
2022-11-04T01:29:28.569Z,13.13
2022-11-04T01:31:57.252Z,13.10
2022-11-04T01:34:25.838Z,13.43
2022-11-04T01:36:55.796Z,13.17
2022-11-04T01:39:24.383Z,13.10
2022-11-04T01:41:53.155Z,13.73
2022-11-04T01:44:55.105Z,13.50
2022-11-04T01:47:29.829Z,12.23
2022-11-04T01:50:03.303Z,13.30
2022-11-04T01:52:39.899Z,12.47
2022-11-04T01:55:16.899Z,12.70
2022-11-04T01:57:49.998Z,13.00
2022-11-04T02:00:19.561Z,12.57
2022-11-04T02:03:01.198Z,12.60
2022-11-04T02:05:31.388Z,14.20
2022-11-04T02:08:04.378Z,14.40
2022-11-04T02:10:33.873Z,15.30
2022-11-04T02:13:04.019Z,15.97
2022-11-04T02:15:44.124Z,15.43
2022-11-04T02:18:33.855Z,15.10
2022-11-04T02:22:01.946Z,14.20
2022-11-04T02:25:06.312Z,14.10
2022-11-04T02:27:48.861Z,13.70
2022-11-04T02:30:20.207Z,12.50
2022-11-04T02:33:19.569Z,13.13
2022-11-04T02:36:00.102Z,13.00
2022-11-04T02:38:37.375Z,14.10
2022-11-04T02:41:18.594Z,12.00
2022-11-04T02:43:54.531Z,12.80
2022-11-04T02:46:32.568Z,13.00
2022-11-04T02:49:09.240Z,13.90
2022-11-04T02:51:45.209Z,13.70
2022-11-04T02:54:18.917Z,12.40
2022-11-04T02:56:52.287Z,12.67
2022-11-04T02:59:30.841Z,12.47
2022-11-04T03:02:03.135Z,12.60
2022-11-04T03:04:38.726Z,12.63
2022-11-04T03:07:13.282Z,13.07
2022-11-04T03:09:45.842Z,12.70
2022-11-04T03:12:18.990Z,12.30
2022-11-04T03:14:53.846Z,12.80
2022-11-04T03:17:30.826Z,12.83
2022-11-04T03:20:01.787Z,12.00
2022-11-04T03:22:32.238Z,12.97
2022-11-04T03:25:02.451Z,13.23
2022-11-04T03:27:37.318Z,12.77
2022-11-04T03:30:09.384Z,13.07
2022-11-04T03:32:45.243Z,12.13
2022-11-04T03:35:16.358Z,12.93
2022-11-04T03:37:45.700Z,12.77
2022-11-04T03:40:15.062Z,13.50
2022-11-04T03:42:49.777Z,12.97
2022-11-04T03:45:40.609Z,12.33
2022-11-04T03:48:10.858Z,12.47
2022-11-04T03:50:44.317Z,12.37
2022-11-04T03:53:14.726Z,13.30
2022-11-04T03:55:59.387Z,13.33
2022-11-04T03:58:39.211Z,12.60
2022-11-04T04:01:27.222Z,12.90
2022-11-04T04:04:02.802Z,12.30
2022-11-04T04:06:36.342Z,13.00
2022-11-04T04:09:13.631Z,12.40
2022-11-04T04:11:49.486Z,12.70
2022-11-04T04:14:38.429Z,12.10
2022-11-04T04:17:14.128Z,13.33
2022-11-04T04:19:50.487Z,12.60
2022-11-04T04:22:22.962Z,12.33
2022-11-04T04:25:13.520Z,12.23
2022-11-04T04:27:43.319Z,12.57
2022-11-04T04:30:15.712Z,13.10
2022-11-04T04:32:48.264Z,12.90
2022-11-04T04:35:38.433Z,13.30
2022-11-04T04:38:28.071Z,12.90
2022-11-04T04:41:22.021Z,12.67
2022-11-04T04:44:08.382Z,12.50
2022-11-04T04:46:38.033Z,13.20
2022-11-04T04:49:08.085Z,13.43
2022-11-04T04:51:42.691Z,12.90
2022-11-04T04:54:11.385Z,12.90
2022-11-04T04:56:39.947Z,12.70
2022-11-04T04:59:08.610Z,13.10
2022-11-04T05:01:37.365Z,12.60
2022-11-04T05:04:06.357Z,12.50
2022-11-04T05:06:34.853Z,12.67
2022-11-04T05:09:05.190Z,12.93
2022-11-04T05:11:34.217Z,12.50
2022-11-04T05:14:02.808Z,12.53
2022-11-04T05:16:32.774Z,12.43
2022-11-04T05:19:04.057Z,11.87
2022-11-04T05:21:32.671Z,12.40
2022-11-04T05:24:01.171Z,12.87
2022-11-04T05:26:51.302Z,12.00
2022-11-04T05:29:19.910Z,12.60
2022-11-04T05:31:48.557Z,13.10
2022-11-04T05:34:17.349Z,13.00
2022-11-04T05:36:45.817Z,12.10
2022-11-04T05:39:15.179Z,12.90
2022-11-04T05:41:43.700Z,12.37
2022-11-04T05:44:13.673Z,12.57
2022-11-04T05:47:02.624Z,11.90
2022-11-04T05:49:31.396Z,13.07
2022-11-04T05:52:00.007Z,12.80
2022-11-04T05:54:28.677Z,12.50
2022-11-04T05:56:57.225Z,12.97
2022-11-04T05:59:27.218Z,13.00
2022-11-04T06:01:55.880Z,11.90
2022-11-04T06:04:24.585Z,12.43
2022-11-04T06:06:53.239Z,11.83
2022-11-04T06:09:38.782Z,11.90
2022-11-04T06:12:09.798Z,11.97
2022-11-04T06:14:39.912Z,12.43
2022-11-04T06:17:08.492Z,12.40
2022-11-04T06:19:37.227Z,12.40
2022-11-04T06:22:06.751Z,12.10
2022-11-04T06:24:35.357Z,12.87
2022-11-04T06:27:03.915Z,12.80
2022-11-04T06:29:32.603Z,12.43
2022-11-04T06:32:02.589Z,12.90
2022-11-04T06:34:31.171Z,12.10
2022-11-04T06:36:59.692Z,12.87
2022-11-04T06:39:28.351Z,12.30
2022-11-04T06:41:59.734Z,13.30
2022-11-04T06:44:31.114Z,12.60
2022-11-04T06:47:01.107Z,12.37
2022-11-04T06:49:29.672Z,12.37
2022-11-04T06:51:58.298Z,11.70
2022-11-04T06:54:26.867Z,12.30
2022-11-04T06:56:55.399Z,12.60
2022-11-04T06:59:24.124Z,12.10
2022-11-04T07:01:53.089Z,12.40
2022-11-04T07:04:23.243Z,12.17
2022-11-04T07:06:51.863Z,12.23
2022-11-04T07:09:20.944Z,12.13
2022-11-04T07:11:49.756Z,12.00
2022-11-04T07:14:18.355Z,12.13
2022-11-04T07:16:46.914Z,12.37
2022-11-04T07:19:15.494Z,12.20
2022-11-04T07:21:45.474Z,12.07
2022-11-04T07:24:14.042Z,12.47
2022-11-04T07:26:43.188Z,12.10
2022-11-04T07:29:12.240Z,12.10
2022-11-04T07:31:40.836Z,12.07
2022-11-04T07:34:09.698Z,12.67
2022-11-04T07:36:38.325Z,12.17
2022-11-04T07:39:08.265Z,11.93
2022-11-04T07:41:36.937Z,12.43
2022-11-04T07:44:05.729Z,12.20
2022-11-04T07:46:34.393Z,12.17
2022-11-04T07:49:03.057Z,12.20
2022-11-04T07:51:32.464Z,12.90
2022-11-04T07:54:01.557Z,12.10
2022-11-04T07:56:31.494Z,12.10
2022-11-04T07:59:00.236Z,12.00
2022-11-04T08:01:28.845Z,12.00
2022-11-04T08:03:57.466Z,12.60
2022-11-04T08:06:26.128Z,11.97
2022-11-04T08:08:54.821Z,12.60
2022-11-04T08:11:28.338Z,12.17
2022-11-04T08:13:58.459Z,11.60
2022-11-04T08:16:33.087Z,11.73
2022-11-04T08:19:02.979Z,12.00
2022-11-04T08:21:33.627Z,12.67
2022-11-04T08:24:05.350Z,12.00
2022-11-04T08:26:34.051Z,11.47
2022-11-04T08:29:08.144Z,11.50
2022-11-04T08:31:37.474Z,12.30
2022-11-04T08:34:08.484Z,12.10
2022-11-04T08:36:40.854Z,12.50
2022-11-04T08:39:11.361Z,11.20
2022-11-04T08:41:43.173Z,10.50
2022-11-04T08:44:14.431Z,11.30
2022-11-04T08:46:45.632Z,11.07
2022-11-04T08:49:19.528Z,10.67
2022-11-04T08:51:56.393Z,11.27
2022-11-04T08:54:25.374Z,11.27
2022-11-04T08:56:54.660Z,10.27
2022-11-04T08:59:25.218Z,10.63
2022-11-04T09:01:54.118Z,10.67
2022-11-04T09:04:22.757Z,10.03
2022-11-04T09:06:52.317Z,10.10
2022-11-04T09:09:21.178Z,10.60
2022-11-04T09:11:50.391Z,10.00
2022-11-04T09:14:19.203Z,10.00
2022-11-04T09:16:49.183Z,9.53
2022-11-04T09:19:17.770Z,10.00
2022-11-04T09:21:46.323Z,9.30
2022-11-04T09:24:14.966Z,9.10
2022-11-04T09:26:44.746Z,9.00
2022-11-04T09:29:13.313Z,9.43
2022-11-04T09:31:43.274Z,9.20
2022-11-04T09:34:13.219Z,9.00
2022-11-04T09:36:42.119Z,9.10
2022-11-04T09:39:10.716Z,9.03
2022-11-04T09:42:03.999Z,9.50
2022-11-04T09:45:07.287Z,9.17
2022-11-04T09:47:35.387Z,9.50
2022-11-04T09:50:11.025Z,9.10
2022-11-04T09:52:45.500Z,9.50
2022-11-04T09:55:23.466Z,9.47
2022-11-04T09:57:57.508Z,9.47
2022-11-04T10:00:27.029Z,9.33
2022-11-04T10:03:13.691Z,9.30
2022-11-04T10:06:04.412Z,9.50
2022-11-04T10:08:49.242Z,9.73
2022-11-04T10:11:26.221Z,9.20
2022-11-04T10:14:25.235Z,9.50
2022-11-04T10:17:06.738Z,9.47
2022-11-04T10:19:59.932Z,9.07
2022-11-04T10:22:35.685Z,9.43
2022-11-04T10:25:15.639Z,9.20
2022-11-04T10:27:47.505Z,9.13
2022-11-04T10:30:19.610Z,9.80
2022-11-04T10:33:00.898Z,8.93
2022-11-04T10:35:36.730Z,9.50
2022-11-04T10:38:19.955Z,9.40
2022-11-04T10:40:51.119Z,9.60
2022-11-04T10:43:34.445Z,9.10
2022-11-04T10:46:25.402Z,9.50
2022-11-04T10:49:03.684Z,9.37
2022-11-04T10:51:32.325Z,9.60
2022-11-04T10:54:03.387Z,9.53
2022-11-04T10:56:40.505Z,9.60
2022-11-04T10:59:24.509Z,9.70
2022-11-04T11:01:55.241Z,9.70
2022-11-04T11:04:30.966Z,9.40
2022-11-04T11:07:02.234Z,9.60
2022-11-04T11:09:34.782Z,9.10
2022-11-04T11:12:29.408Z,9.10
2022-11-04T11:14:54.972Z,9.13
2022-11-04T11:17:37.364Z,9.60
2022-11-04T11:20:22.130Z,9.10
2022-11-04T11:22:54.180Z,9.20
2022-11-04T11:25:29.048Z,9.43
2022-11-04T11:28:00.672Z,9.47
2022-11-04T11:30:33.101Z,9.00
2022-11-04T11:33:05.004Z,9.33
2022-11-04T11:35:41.512Z,9.53
2022-11-04T11:38:20.796Z,9.37
2022-11-04T11:41:22.871Z,9.00
2022-11-04T11:43:47.603Z,9.30
2022-11-04T11:46:23.865Z,9.10
2022-11-04T11:48:54.423Z,9.30
2022-11-04T11:51:31.953Z,9.37
2022-11-04T11:54:23.830Z,9.60
2022-11-04T11:57:14.588Z,9.60
2022-11-04T12:02:52.060Z,9.20
2022-11-04T12:09:19.020Z,9.30
2022-11-04T12:12:07.757Z,9.00
2022-11-04T12:14:55.287Z,9.23
2022-11-04T12:17:39.388Z,9.17
2022-11-04T12:20:25.439Z,9.13
2022-11-04T12:23:00.357Z,9.30
2022-11-04T12:25:37.568Z,10.10
2022-11-04T12:28:22.493Z,9.10
2022-11-04T12:31:11.164Z,9.07
2022-11-04T12:33:47.163Z,9.10
2022-11-04T12:36:43.938Z,9.43
2022-11-04T12:39:29.226Z,9.20
2022-11-04T12:42:22.972Z,9.00
2022-11-04T12:45:07.769Z,9.17
2022-11-04T12:47:39.756Z,9.50
2022-11-04T12:50:33.177Z,9.10
2022-11-04T12:53:23.734Z,9.30
2022-11-04T12:56:05.015Z,9.10
2022-11-04T12:59:02.415Z,8.83
2022-11-04T13:01:37.800Z,9.13
2022-11-04T13:04:12.789Z,9.53
2022-11-04T13:06:45.028Z,8.90
2022-11-04T13:09:19.366Z,9.40
2022-11-04T13:11:53.981Z,9.30
2022-11-04T13:14:29.623Z,9.50
2022-11-04T13:17:05.894Z,9.17
2022-11-04T13:19:40.574Z,8.93
2022-11-04T13:22:13.091Z,9.20
2022-11-04T13:24:50.619Z,9.17
2022-11-04T13:27:23.339Z,9.03
2022-11-04T13:30:09.879Z,9.13
2022-11-04T13:32:49.921Z,9.00
2022-11-04T13:35:27.519Z,9.30
2022-11-04T13:38:01.282Z,9.50
2022-11-04T13:40:36.485Z,9.23
2022-11-04T13:43:39.135Z,9.80
2022-11-04T13:46:23.789Z,8.90
2022-11-04T13:49:02.833Z,9.33
2022-11-04T13:51:42.104Z,9.30
2022-11-04T13:54:29.699Z,9.50
2022-11-04T13:57:08.290Z,9.57
2022-11-04T13:59:37.443Z,9.27
2022-11-04T14:02:40.699Z,9.37
2022-11-04T14:06:05.625Z,9.27
2022-11-04T14:08:35.351Z,9.80
2022-11-04T14:11:10.351Z,9.53
2022-11-04T14:14:05.635Z,9.67
2022-11-04T14:16:46.293Z,9.30
2022-11-04T14:19:58.929Z,9.20
2022-11-04T14:22:49.620Z,9.40
2022-11-04T14:25:38.664Z,9.27
2022-11-04T14:28:29.215Z,9.03
2022-11-04T14:31:00.514Z,9.50
2022-11-04T14:33:51.693Z,9.20
2022-11-04T14:36:36.821Z,9.60
2022-11-04T14:39:23.097Z,9.50
2022-11-04T14:41:58.810Z,9.43
2022-11-04T14:44:37.734Z,9.50
2022-11-04T14:47:20.487Z,9.27
2022-11-04T14:49:51.391Z,9.07
2022-11-04T14:52:27.828Z,9.00
2022-11-04T14:55:05.414Z,9.27
2022-11-04T14:57:40.448Z,9.17
2022-11-04T15:00:38.420Z,9.37
2022-11-04T15:03:51.995Z,9.10
2022-11-04T15:06:08.087Z,9.10
2022-11-04T15:08:39.766Z,9.20
2022-11-04T15:11:17.664Z,9.10
2022-11-04T15:13:49.418Z,9.13
2022-11-04T15:16:22.198Z,9.20
2022-11-04T15:18:52.924Z,9.37
2022-11-04T15:21:22.123Z,9.70
2022-11-04T15:23:53.432Z,9.33
2022-11-04T15:26:30.693Z,9.03
2022-11-04T15:29:03.147Z,9.33
2022-11-04T15:31:34.580Z,9.30
2022-11-04T15:34:08.191Z,9.10
2022-11-04T15:36:43.108Z,9.17
2022-11-04T15:39:15.913Z,9.10
2022-11-04T15:42:04.643Z,9.57
2022-11-04T15:44:35.443Z,9.67
2022-11-04T15:47:20.921Z,9.43
2022-11-04T15:49:51.446Z,9.30
2022-11-04T15:52:24.916Z,9.27
2022-11-04T15:54:55.570Z,9.50
2022-11-04T15:57:28.954Z,9.27
2022-11-04T16:00:02.778Z,9.57
2022-11-04T16:02:48.101Z,9.33
2022-11-04T16:05:26.718Z,9.63
2022-11-04T16:07:59.525Z,9.77
2022-11-04T16:10:31.461Z,9.33
2022-11-04T16:13:04.104Z,9.83
2022-11-04T16:15:37.247Z,9.43
2022-11-04T16:18:08.186Z,9.23
2022-11-04T16:20:37.687Z,9.30
2022-11-04T16:23:06.325Z,9.50
2022-11-04T16:25:36.726Z,10.03
2022-11-04T16:28:06.897Z,9.87
2022-11-04T16:30:35.501Z,9.87
2022-11-04T16:33:12.746Z,9.70
2022-11-04T16:35:43.208Z,10.20
2022-11-04T16:38:11.761Z,9.80
2022-11-04T16:40:40.535Z,10.30
2022-11-04T16:43:11.934Z,10.47
2022-11-04T16:45:41.334Z,10.30
2022-11-04T16:48:16.077Z,9.63
2022-11-04T16:50:45.315Z,9.83
2022-11-04T16:53:14.018Z,10.00
2022-11-04T16:55:44.524Z,10.03
2022-11-04T16:58:19.349Z,9.57
2022-11-04T17:00:47.997Z,9.57
2022-11-04T17:03:21.175Z,9.47
2022-11-04T17:05:50.901Z,9.87
2022-11-04T17:08:19.642Z,9.50
2022-11-04T17:10:48.748Z,9.90
2022-11-04T17:13:18.920Z,9.87
2022-11-04T17:15:47.695Z,10.10
2022-11-04T17:18:18.124Z,9.97
2022-11-04T17:20:50.914Z,10.30
2022-11-04T17:23:19.615Z,9.47
2022-11-04T17:25:49.137Z,9.53
2022-11-04T17:28:19.085Z,9.70
2022-11-04T17:30:47.739Z,9.73
2022-11-04T17:33:17.341Z,9.83
2022-11-04T17:35:49.537Z,9.90
2022-11-04T17:38:19.064Z,9.93
2022-11-04T17:41:05.740Z,9.70
2022-11-04T17:43:53.334Z,9.50
2022-11-04T17:46:38.154Z,9.60
2022-11-04T17:49:10.948Z,9.60
2022-11-04T17:51:40.642Z,9.80
2022-11-04T17:54:09.502Z,9.80
2022-11-04T17:56:40.518Z,10.10
2022-11-04T17:59:12.401Z,10.23
2022-11-04T18:01:42.196Z,9.40
2022-11-04T18:04:14.926Z,9.77
2022-11-04T18:06:44.748Z,9.87
2022-11-04T18:09:15.141Z,9.80
2022-11-04T18:12:02.398Z,9.97
2022-11-04T18:14:33.295Z,9.60
2022-11-04T18:17:02.512Z,9.40
2022-11-04T18:19:31.317Z,10.17
2022-11-04T18:21:59.896Z,9.40
2022-11-04T18:24:28.511Z,10.10
2022-11-04T18:26:59.444Z,10.20
2022-11-04T18:29:28.442Z,9.83
2022-11-04T18:31:58.644Z,9.67
2022-11-04T18:34:27.208Z,9.87
2022-11-04T18:36:56.905Z,10.03
2022-11-04T18:39:25.754Z,9.87
2022-11-04T18:41:54.339Z,9.70
2022-11-04T18:44:24.248Z,10.17
2022-11-04T18:46:53.001Z,10.30
2022-11-04T18:49:22.942Z,9.77
2022-11-04T18:51:51.545Z,9.90
2022-11-04T18:54:20.864Z,9.60
2022-11-04T18:56:49.466Z,9.83
2022-11-04T18:59:18.429Z,9.63
2022-11-04T19:01:47.166Z,9.77
2022-11-04T19:04:15.889Z,9.73
2022-11-04T19:06:46.407Z,10.00
2022-11-04T19:09:45.932Z,9.47
2022-11-04T19:12:25.364Z,9.87
2022-11-04T19:14:54.711Z,9.43
2022-11-04T19:17:23.974Z,9.70
2022-11-04T19:19:52.577Z,9.57
2022-11-04T19:22:22.581Z,10.23
2022-11-04T19:24:51.154Z,9.90
2022-11-04T19:27:21.630Z,9.63
2022-11-04T19:29:50.676Z,9.80
2022-11-04T19:32:19.507Z,9.83
2022-11-04T19:34:48.313Z,9.50
2022-11-04T19:37:17.057Z,9.20
2022-11-04T19:39:47.054Z,9.73
2022-11-04T19:42:34.535Z,9.83
2022-11-04T19:45:03.174Z,10.17
2022-11-04T19:47:31.707Z,9.97
2022-11-04T19:50:00.310Z,10.37
2022-11-04T19:52:28.951Z,10.47
2022-11-04T19:54:58.918Z,10.20
2022-11-04T19:57:28.079Z,9.83
2022-11-04T19:59:56.973Z,10.37
2022-11-04T20:02:25.635Z,9.97
2022-11-04T20:04:54.307Z,10.27
2022-11-04T20:07:22.942Z,10.40
2022-11-04T20:09:51.555Z,9.87
2022-11-04T20:12:38.932Z,10.23
2022-11-04T20:15:09.449Z,9.77
2022-11-04T20:17:37.998Z,9.73
2022-11-04T20:20:08.220Z,10.10
2022-11-04T20:22:36.844Z,10.17
2022-11-04T20:25:06.552Z,9.93
2022-11-04T20:27:37.551Z,9.90
2022-11-04T20:30:08.207Z,10.37
2022-11-04T20:32:36.768Z,9.80
2022-11-04T20:35:06.611Z,9.90
2022-11-04T20:37:35.815Z,9.87
2022-11-04T20:40:05.364Z,10.40
2022-11-04T20:42:35.757Z,9.73
2022-11-04T20:45:05.043Z,10.17
2022-11-04T20:47:34.189Z,9.83
2022-11-04T20:50:03.718Z,10.10
2022-11-04T20:52:32.678Z,9.70
2022-11-04T20:55:01.230Z,9.67
2022-11-04T20:57:29.783Z,9.83
2022-11-04T20:59:59.812Z,10.07
2022-11-04T21:02:28.715Z,9.80
2022-11-04T21:04:57.364Z,9.63
2022-11-04T21:07:25.978Z,10.13
2022-11-04T21:09:54.632Z,10.23
2022-11-04T21:12:23.163Z,10.13
2022-11-04T21:14:51.777Z,10.30
2022-11-04T21:17:21.851Z,10.30
2022-11-04T21:19:50.401Z,10.40
2022-11-04T21:22:19.011Z,9.60
2022-11-04T21:24:47.550Z,10.07
2022-11-04T21:27:16.054Z,9.60
2022-11-04T21:29:44.819Z,9.83
2022-11-04T21:32:13.375Z,10.30
2022-11-04T21:34:43.279Z,10.47
2022-11-04T21:37:11.897Z,10.10
2022-11-04T21:39:42.646Z,10.13
2022-11-04T21:42:11.251Z,10.27
2022-11-04T21:44:39.825Z,10.07
2022-11-04T21:47:08.398Z,10.63
2022-11-04T21:49:37.171Z,10.37
2022-11-04T21:52:07.180Z,10.00
2022-11-04T21:54:36.029Z,10.50
2022-11-04T21:57:04.803Z,10.50
2022-11-04T21:59:33.410Z,10.73
2022-11-04T22:02:02.127Z,10.30
2022-11-04T22:04:30.911Z,10.50
2022-11-04T22:06:59.564Z,10.50
2022-11-04T22:09:29.487Z,10.63
2022-11-04T22:11:58.058Z,10.80
2022-11-04T22:14:26.747Z,10.77
2022-11-04T22:16:55.353Z,11.00
2022-11-04T22:19:23.851Z,10.90
2022-11-04T22:21:52.495Z,10.50
2022-11-04T22:24:21.128Z,10.80
2022-11-04T22:26:51.212Z,10.60
2022-11-04T22:29:20.153Z,10.60
2022-11-04T22:31:48.730Z,10.57
2022-11-04T22:34:17.318Z,10.80
2022-11-04T22:36:45.909Z,10.13
2022-11-04T22:39:16.707Z,10.40
2022-11-04T22:41:46.744Z,10.30
2022-11-04T22:44:16.726Z,10.30
2022-11-04T22:46:45.405Z,10.00
2022-11-04T22:49:14.944Z,9.73
2022-11-04T22:51:43.565Z,9.70
2022-11-04T22:54:12.453Z,10.03
2022-11-04T22:56:41.132Z,9.93
2022-11-04T22:59:10.438Z,9.93
2022-11-04T23:01:40.457Z,10.40
2022-11-04T23:04:12.259Z,9.70
2022-11-04T23:06:41.354Z,9.83
2022-11-04T23:09:11.482Z,9.80
2022-11-04T23:11:57.602Z,10.27
2022-11-04T23:14:43.079Z,10.37
2022-11-04T23:17:36.716Z,9.70
2022-11-04T23:20:10.740Z,10.20
2022-11-04T23:22:56.556Z,10.17
2022-11-04T23:25:25.640Z,10.60
2022-11-04T23:28:13.683Z,10.30
2022-11-04T23:30:46.608Z,10.13
2022-11-04T23:33:16.541Z,10.03
2022-11-04T23:36:06.196Z,10.23
2022-11-04T23:38:35.771Z,10.83
2022-11-04T23:41:25.889Z,10.20
2022-11-04T23:43:54.635Z,10.43
2022-11-04T23:46:43.386Z,9.80
2022-11-04T23:49:31.841Z,10.70
2022-11-04T23:52:17.878Z,10.20
2022-11-04T23:55:03.622Z,10.30
2022-11-04T23:57:49.484Z,11.03
